Fort Lauderdale Executive Airport
KFXE : now visible

Airfield :











YOU CAN JOIN US ON...

 
LOGIN :

Register | Disclaimer

   EN    FR    IT 

 









Legend :    VFR   Marginal VFR   IFR   Intensive IFR   Very Intensive IFR
Visi :
Ceiling :
>= 8 km
>= 3000ft
5 to 8 km
1000 to 3000 ft
1500m to 5 km
500 to 1000 ft
800 to 1500m
200 to 500 ft
< 800m
< 200 ft
Symbols :   Thunderstorms  Fog  Heavy snow  Heavy precipitations  Wind > 20 kt







- Airport Elevation : 13 ft


KFXE - Fort Lauderdale Executive

CURRENT METAR :
  • 210653Z 04003KT 10SM FEW090 FEW110 23/22 A3002 RMK AO2 PK WND 14035/0606 LTG DSNT W RAB0555E43 TSE38 SLP169 P0021 T02330222

EXPIRED METARs :
  • 210644Z 01004KT 10SM FEW049 SCT095 SCT110 23/22 A3003 RMK AO2 PK WND 14035/0606 RAB0555E43 TSE38 P0021 T02330217
  • 210628Z 27006KT 6SM -TSRA BR BKN040 BKN055 OVC090 23/22 A3004 RMK AO2 PK WND 14035/0606 RAB0555 P0021 T02330217
  • 210618Z 08007G26KT 2SM +TSRA FEW024 OVC036 24/21 A3004 RMK AO2 PK WND 14035/0606 RAB0555 P0018 T02440211
  • 210553Z 10009KT 10SM TS SCT024 SCT034 26/24 A3005 RMK AO2 LTG DSNT SE RAE02 TSE37B47 SLP178 P0000 60015 T02560239 10289 20256 58004
  • 210543Z 00000KT 10SM VCTS FEW034 26/23 A3005 RMK AO2 LTG DSNT SE RAE02 TSE37 P0000 T02560233
  • 210501Z 10005KT 10SM -RA SCT024 SCT070 BKN100 27/23 A3006 RMK AO2 P0000 T02670228
  • 210453Z VRB04KT 2 1/2SM +RA SCT024 BKN070 BKN100 27/21 A3006 RMK AO2 PK WND 12026/0444 RAB43 SLP180 P0015 T02670211 403170250

TAF KFXE
Valid from the 21 at 06:00 until the 22 at 06:00 UTC


210540Z 2106/2206 VRB03KT P6SM VCSH SCT025 BKN100
TEMPO 2106/2107 VRB10G25KT TSRA BKN035CB
FM211400 11010KT P6SM VCTS SCT025CB BKN050
FM220000 10006KT P6SM SCT025 BKN200
KZMA FIR / North America



MET'MAP, your aeronautical weather chart ! - Copyright ORBIFLY December 2007 - Disclaimer

ORBIFLY MET'MAP TEAM :

Programming & Development : Alexandra Zaïnal
Concept & Development : Baudouin d'Aumeries
Co-Development & Prog : Marc-Olivier Méhu
Technical & hardware support : Manuel Goepfert

Contact : metmap@orbifly.com




SOURCES & CREDITS :

   NOAA       Earth
Advisory